Main page
METAR-TAF:

METAR-TAF

Airports :

Yakutsk Airport

Yakutsk, Russia

latitude: 62-01N, longitude: 129-43E, elevation: 103 m

Current weather observation

The report was made 29 minutes ago, at 21:30 UTC
Wind 4 kt from the Northeast
Temperature 1°C
Humidity 59%
Pressure 1013 hPa
Visibility 10 km or more
no clouds below 1500 m and no cumulonimbus

METAR: UEEE 192130Z 04002MPS CAVOK 01/M06 Q1013 R23/09//71 NOSIG RMK QFE751

Time: 06:59 (21:59 UTC)

Forecast

The report was made 1 hour and 59 minutes ago, at 20:00 UTC
Forecast valid from 19 at 21 UTC to 21 at 03 UTC
Wind 6 kt from the West/Northwest
Visibility 10 km or more
no clouds below 1500 m and no cumulonimbus
Becoming
from 20 at 00 UTC to 20 at 02 UTC
Wind 10 kt from the East with gusts up to 19 kt

TAF: UEEE 192000Z 1921/2103 30003MPS CAVOK BECMG 2000/2002 10005G10MPS

Weather observations and forecasts of more than 4000 airports (METAR and TAF reports).

The available stations are represented by yellow and red dots on the map.

Hover mouse over dot to see the name of the station.

Then click to see weather observations and forecasts.

To change the map : click on the green buttons with a black cross to zoom in, on the green button with a dash to zoom out, or on the green arrows for adjacent maps.


METAR-TAF: